FAHS/HDS METAR and TAF weather

Enter ICAO airport designator
Station Type Date Time Source
FAHS METAR 2020/08/11 18:00 UTC NOAA

FAHS 111800Z AUTO 04005KT //// // ////// 19/09 Q1021


Station Type Date Time Source
FAHS Decoded METAR 2020/08/11 18:00 UTC NOAA

Hoedspruit, South Africa (FAHS) 24-22S 031-02E 500M
Aug 11, 2020 - 02:00 PM EDT / 2020.08.11 1800 UTC
Wind: from the NE (040 degrees) at 6 MPH (5 KT):0
Temperature: 66 F (19 C)
Dew Point: 48 F (9 C)
Relative Humidity: 52%
Pressure (altimeter): 30.15 in. Hg (1021 hPa)
ob: FAHS 111800Z AUTO 04005KT //// // ////// 19/09 Q1021
cycle: 18

Station Type Date Time Source
FAHS TAF 2017/05/23 04:01 UTC NOAA

TAF FAHS 230300Z 2304/2315 VRB02KT CAVOK TX29/2312ZTN12/2304Z

Example: see airport list